Terminal Aerodrome Forecast
Issued by NWS

Home | Current Version | Previous Version | Text Only | Print | Product List | Glossary On
Versions: 1 2 3 4 5 6 7 8 9 10 11 12 13 14 15 16 17 18 19 20 21 22 23 24 25 26 27 28 29 30 31 32 33 34 35
000
FTUS41 KBOX 230304 AAA
TAFMHT
TAF AMD
KMHT 230304Z 2303/2324 02017G26KT 5SM SHRA OVC012
     FM231000 01015G25KT 1SM +RA BR OVC003
     FM231200 01015G24KT 1SM -RA BR OVC008
     FM231500 36014G31KT 3SM -RA BR OVC010
     FM231700 36014G23KT 3SM -SHRA BR OVC010=

USA.gov is the U.S. government's official web portal to all federal, state and local government web resources and services.